Time;durP1;ratioP1;P1;durP2;ratioP2;P2;SDS_P1;SDS_P2;PMS_P1;PMS_P2;Temp;Humidity;BMP_temperature;BMP_pressure;BME280_temperature;BME280_humidity;BME280_pressure;Samples;Min_cycle;Max_cycle;Signal;HPM_P1;HPM_P2
2021/09/06 00:01:20;;;;;;;;;;;20.50;68.80;;;;;;5086097;28;1071;-76
2021/09/06 00:03:46;;;;;;;;;;;20.50;68.80;;;;;;5090477;28;1231;-76
2021/09/06 00:06:11;;;;;;;;;;;20.50;68.90;;;;;;5074177;28;1099;-77
2021/09/06 00:08:36;;;;;;;;;;;20.50;68.80;;;;;;5087706;28;1263;-76
2021/09/06 00:11:06;;;;;;;;;;;20.50;68.90;;;;;;5074208;28;1106;-76
2021/09/06 00:13:31;;;;;;;;;;;20.50;68.90;;;;;;5060676;28;1902;-76
2021/09/06 00:15:56;;;;;;;;;;;20.50;68.90;;;;;;5085267;28;1134;-77
2021/09/06 00:18:22;;;;;;;;;;;20.50;68.90;;;;;;5075189;28;1091;-76
2021/09/06 00:20:47;;;;;;;;;;;20.50;68.90;;;;;;5075693;28;1145;-76
2021/09/06 00:23:13;;;;;;;;;;;20.50;68.90;;;;;;5074578;28;1381;-76
2021/09/06 00:25:44;;;;;;;;;;;20.50;68.90;;;;;;5075111;28;1157;-76
2021/09/06 00:28:09;;;;;;;;;;;20.50;69.00;;;;;;5073689;28;1143;-76
2021/09/06 00:30:35;;;;;;;;;;;20.50;69.00;;;;;;5073843;28;1165;-76
2021/09/06 00:33:00;;;;;;;;;;;20.50;69.00;;;;;;5052496;28;1335;-76
2021/09/06 00:35:25;;;;;;;;;;;20.50;69.00;;;;;;5064251;28;1971;-76
2021/09/06 00:37:51;;;;;;;;;;;20.50;69.10;;;;;;5073531;28;1304;-76
2021/09/06 00:40:16;;;;;;;;;;;20.50;69.10;;;;;;5084817;28;1047;-76
2021/09/06 00:42:42;;;;;;;;;;;20.50;69.10;;;;;;5075837;28;1181;-76
2021/09/06 00:45:07;;;;;;;;;;;20.50;69.10;;;;;;5074308;28;1217;-76
2021/09/06 00:47:34;;;;;;;;;;;20.50;69.20;;;;;;5073542;28;1164;-76
2021/09/06 00:50:02;;;;;;;;;;;20.50;69.20;;;;;;5073384;28;1389;-76
2021/09/06 00:52:27;;;;;;;;;;;20.50;69.30;;;;;;5077195;28;1210;-76
2021/09/06 00:54:53;;;;;;;;;;;20.50;69.30;;;;;;5083716;28;1979;-76
2021/09/06 00:57:18;;;;;;;;;;;20.50;69.30;;;;;;5076993;28;1223;-76
2021/09/06 00:59:44;;;;;;;;;;;20.50;69.40;;;;;;5093614;28;1335;-76
2021/09/06 01:02:09;;;;;;;;;;;20.50;69.40;;;;;;5077311;28;1121;-76
2021/09/06 01:04:34;;;;;;;;;;;20.50;69.40;;;;;;5074054;28;1307;-76
2021/09/06 01:07:00;;;;;;;;;;;20.50;69.40;;;;;;5077546;28;1059;-76
2021/09/06 01:09:25;;;;;;;;;;;20.50;69.40;;;;;;5084561;28;1136;-77
2021/09/06 01:11:51;;;;;;;;;;;20.50;69.40;;;;;;5072963;28;1139;-77
2021/09/06 01:14:16;;;;;;;;;;;20.50;69.40;;;;;;5074008;28;1905;-76
2021/09/06 01:16:41;;;;;;;;;;;20.50;69.50;;;;;;5072857;28;1134;-76
2021/09/06 01:19:07;;;;;;;;;;;20.50;69.50;;;;;;5072933;28;1146;-76
2021/09/06 01:21:32;;;;;;;;;;;20.50;69.50;;;;;;5076869;28;1094;-76
2021/09/06 01:23:58;;;;;;;;;;;20.50;69.50;;;;;;5083872;28;1212;-76
2021/09/06 01:26:24;;;;;;;;;;;20.50;69.60;;;;;;5072069;28;1281;-77
2021/09/06 01:28:49;;;;;;;;;;;20.50;69.60;;;;;;5073118;28;1475;-75
2021/09/06 01:31:15;;;;;;;;;;;20.50;69.60;;;;;;5074420;28;1203;-75
2021/09/06 01:33:40;;;;;;;;;;;20.50;69.70;;;;;;5073414;28;1902;-76
2021/09/06 01:36:06;;;;;;;;;;;20.50;69.70;;;;;;5072037;28;1274;-76
2021/09/06 01:38:32;;;;;;;;;;;20.50;69.70;;;;;;5069728;28;1230;-76
2021/09/06 01:40:58;;;;;;;;;;;20.50;69.70;;;;;;5073699;28;1306;-77
2021/09/06 01:43:23;;;;;;;;;;;20.50;69.70;;;;;;5075582;28;1729;-75
2021/09/06 01:45:49;;;;;;;;;;;20.50;69.70;;;;;;5075126;28;1227;-75
2021/09/06 01:48:14;;;;;;;;;;;20.50;69.70;;;;;;5073135;28;1234;-74
2021/09/06 01:50:39;;;;;;;;;;;20.50;69.70;;;;;;5072627;28;1227;-75
2021/09/06 01:53:05;;;;;;;;;;;20.50;69.70;;;;;;5073953;28;1331;-75
2021/09/06 01:55:30;;;;;;;;;;;20.50;69.80;;;;;;5071933;28;1906;-75
2021/09/06 01:57:56;;;;;;;;;;;20.50;69.80;;;;;;5074977;28;1231;-74
2021/09/06 02:00:21;;;;;;;;;;;20.50;69.80;;;;;;5074630;28;1205;-75
2021/09/06 02:02:47;;;;;;;;;;;20.50;69.80;;;;;;5084611;28;1351;-76
2021/09/06 02:05:12;;;;;;;;;;;20.50;69.90;;;;;;5054725;28;1273;-76
2021/09/06 02:07:37;;;;;;;;;;;20.50;69.90;;;;;;5073259;28;1031;-75
2021/09/06 02:10:04;;;;;;;;;;;20.50;69.90;;;;;;5088301;28;1251;-76
2021/09/06 02:12:29;;;;;;;;;;;20.50;69.90;;;;;;5083953;28;1204;-76
2021/09/06 02:14:55;;;;;;;;;;;20.50;69.90;;;;;;5073083;28;1983;-76
2021/09/06 02:17:20;;;;;;;;;;;20.50;69.90;;;;;;5093413;28;1232;-76
2021/09/06 02:19:45;;;;;;;;;;;20.50;70.00;;;;;;5093213;28;1287;-76
2021/09/06 02:22:11;;;;;;;;;;;20.50;70.00;;;;;;5083939;28;1133;-75
2021/09/06 02:24:36;;;;;;;;;;;20.50;70.00;;;;;;5073414;28;1262;-77
2021/09/06 02:27:02;;;;;;;;;;;20.50;70.00;;;;;;5073218;28;1153;-77
2021/09/06 02:29:27;;;;;;;;;;;20.50;70.00;;;;;;5072211;28;1172;-76
2021/09/06 02:31:53;;;;;;;;;;;20.50;70.00;;;;;;5072042;28;1138;-77
2021/09/06 02:34:18;;;;;;;;;;;20.50;70.00;;;;;;5072688;28;1906;-76
2021/09/06 02:36:43;;;;;;;;;;;20.50;70.10;;;;;;5073126;28;1130;-77
2021/09/06 02:39:09;;;;;;;;;;;20.50;70.10;;;;;;5086620;28;1055;-77
2021/09/06 02:41:34;;;;;;;;;;;20.50;70.10;;;;;;5071857;28;1075;-75
2021/09/06 02:44:00;;;;;;;;;;;20.50;70.10;;;;;;5072480;28;1263;-75
2021/09/06 02:46:25;;;;;;;;;;;20.50;70.10;;;;;;5071891;28;1417;-75
2021/09/06 02:48:51;;;;;;;;;;;20.50;70.10;;;;;;5071711;28;1110;-75
2021/09/06 02:51:16;;;;;;;;;;;20.50;70.10;;;;;;5068307;28;1110;-76
2021/09/06 02:53:41;;;;;;;;;;;20.50;70.10;;;;;;5066616;28;1944;-75
2021/09/06 02:56:07;;;;;;;;;;;20.50;70.20;;;;;;5071541;28;1059;-75
2021/09/06 02:58:32;;;;;;;;;;;20.50;70.20;;;;;;5071469;28;1130;-75
2021/09/06 03:00:58;;;;;;;;;;;20.50;70.20;;;;;;5072682;28;1082;-75
2021/09/06 03:03:23;;;;;;;;;;;20.40;70.20;;;;;;5071047;28;1349;-75
2021/09/06 03:05:49;;;;;;;;;;;20.50;70.20;;;;;;5072670;28;1097;-75
2021/09/06 03:08:14;;;;;;;;;;;20.50;70.20;;;;;;5089387;28;1310;-75
2021/09/06 03:10:39;;;;;;;;;;;20.50;70.20;;;;;;5097021;28;1283;-75
2021/09/06 03:13:05;;;;;;;;;;;20.50;70.30;;;;;;5096542;28;1277;-75
2021/09/06 03:15:30;;;;;;;;;;;20.50;70.30;;;;;;5095470;28;1957;-75
2021/09/06 03:17:56;;;;;;;;;;;20.50;70.30;;;;;;5096555;28;1081;-75
2021/09/06 03:20:22;;;;;;;;;;;20.50;70.30;;;;;;5058500;28;1183;-74
2021/09/06 03:22:47;;;;;;;;;;;20.50;70.30;;;;;;5076399;28;1254;-74
2021/09/06 03:25:13;;;;;;;;;;;20.50;70.40;;;;;;5071819;28;1161;-74
2021/09/06 03:27:38;;;;;;;;;;;20.50;70.30;;;;;;5076239;28;1285;-77
2021/09/06 03:30:04;;;;;;;;;;;20.50;70.30;;;;;;5075091;28;1159;-76
2021/09/06 03:32:29;;;;;;;;;;;20.50;70.40;;;;;;5076068;28;1067;-77
2021/09/06 03:34:55;;;;;;;;;;;20.50;70.40;;;;;;5075860;28;1910;-77
2021/09/06 03:37:20;;;;;;;;;;;20.50;70.30;;;;;;5076027;28;1094;-76
2021/09/06 03:39:47;;;;;;;;;;;20.50;70.40;;;;;;5074788;28;1119;-77
2021/09/06 03:42:12;;;;;;;;;;;20.50;70.40;;;;;;5074809;28;1301;-77
2021/09/06 03:44:38;;;;;;;;;;;20.50;70.40;;;;;;5075354;28;1223;-77
2021/09/06 03:47:03;;;;;;;;;;;20.50;70.40;;;;;;5074758;28;1107;-77
2021/09/06 03:49:29;;;;;;;;;;;20.50;70.40;;;;;;5061077;28;1106;-78
2021/09/06 03:51:54;;;;;;;;;;;20.50;70.40;;;;;;5075988;28;1046;-77
2021/09/06 03:54:19;;;;;;;;;;;20.50;70.50;;;;;;5074151;28;1942;-76
2021/09/06 03:56:45;;;;;;;;;;;20.50;70.50;;;;;;5075640;28;1126;-76
2021/09/06 03:59:10;;;;;;;;;;;20.50;70.50;;;;;;5075616;28;1142;-75
2021/09/06 04:01:36;;;;;;;;;;;20.50;70.50;;;;;;5075749;28;1157;-76
2021/09/06 04:04:01;;;;;;;;;;;20.50;70.50;;;;;;5075092;28;1259;-75
2021/09/06 04:06:27;;;;;;;;;;;20.50;70.50;;;;;;5075736;28;1074;-76
2021/09/06 04:08:52;;;;;;;;;;;20.50;70.50;;;;;;5074278;28;1056;-76
2021/09/06 04:11:18;;;;;;;;;;;20.50;70.50;;;;;;5074311;28;1230;-77
2021/09/06 04:13:44;;;;;;;;;;;20.50;70.50;;;;;;5075094;28;1890;-76
2021/09/06 04:16:10;;;;;;;;;;;20.50;70.60;;;;;;5074367;28;1218;-76
2021/09/06 04:18:35;;;;;;;;;;;20.50;70.50;;;;;;5074325;28;1074;-76
2021/09/06 04:21:01;;;;;;;;;;;20.50;70.60;;;;;;5074237;28;1138;-77
2021/09/06 04:23:26;;;;;;;;;;;20.50;71.10;;;;;;5073630;28;1365;-77
2021/09/06 04:25:51;;;;;;;;;;;20.50;70.60;;;;;;5073992;28;1166;-77
2021/09/06 04:28:17;;;;;;;;;;;20.50;70.60;;;;;;5057187;28;1091;-77
2021/09/06 04:30:42;;;;;;;;;;;20.50;70.60;;;;;;5074059;28;1076;-78
2021/09/06 04:33:08;;;;;;;;;;;20.50;70.60;;;;;;5077471;28;1343;-77
2021/09/06 04:35:33;;;;;;;;;;;20.50;70.70;;;;;;5066175;28;1969;-78
2021/09/06 04:37:58;;;;;;;;;;;20.50;70.70;;;;;;5073792;28;1138;-78
2021/09/06 04:40:24;;;;;;;;;;;20.50;70.70;;;;;;5075217;28;1054;-75
2021/09/06 04:42:49;;;;;;;;;;;20.50;70.70;;;;;;5074712;28;1365;-75
2021/09/06 04:45:16;;;;;;;;;;;20.50;70.80;;;;;;5074694;28;1087;-75
2021/09/06 04:47:42;;;;;;;;;;;20.50;70.70;;;;;;5088150;28;1123;-76
2021/09/06 04:50:07;;;;;;;;;;;20.50;70.70;;;;;;5074952;28;1137;-77
2021/09/06 04:52:33;;;;;;;;;;;20.50;70.80;;;;;;5074765;28;1169;-77
2021/09/06 04:54:58;;;;;;;;;;;20.50;70.80;;;;;;5073104;28;1969;-77
2021/09/06 04:57:25;;;;;;;;;;;20.50;70.80;;;;;;5074455;28;1046;-77
2021/09/06 04:59:50;;;;;;;;;;;20.50;70.80;;;;;;5074758;28;1051;-79
2021/09/06 05:02:16;;;;;;;;;;;20.50;70.80;;;;;;5074898;28;1038;-76
2021/09/06 05:04:41;;;;;;;;;;;20.50;70.80;;;;;;5074190;28;1286;-79
2021/09/06 05:07:06;;;;;;;;;;;20.50;70.80;;;;;;5073169;28;1115;-77
2021/09/06 05:09:32;;;;;;;;;;;20.50;70.80;;;;;;5074566;28;1106;-77
2021/09/06 05:11:57;;;;;;;;;;;20.50;70.80;;;;;;5074232;28;1110;-77
2021/09/06 05:14:23;;;;;;;;;;;20.50;70.80;;;;;;5073984;28;1902;-76
2021/09/06 05:16:48;;;;;;;;;;;20.50;70.80;;;;;;5074012;28;1213;-78
2021/09/06 05:19:14;;;;;;;;;;;20.50;70.90;;;;;;5074352;28;1106;-77
2021/09/06 05:21:39;;;;;;;;;;;20.50;70.90;;;;;;5056318;28;2157;-72
2021/09/06 05:24:05;;;;;;;;;;;20.50;70.90;;;;;;5070691;28;1297;-71
2021/09/06 05:26:30;;;;;;;;;;;20.50;71.60;;;;;;5072619;28;1318;-73
2021/09/06 05:28:55;;;;;;;;;;;20.50;70.90;;;;;;5073058;28;1368;-71
2021/09/06 05:31:21;;;;;;;;;;;20.50;70.90;;;;;;5073313;28;1176;-71
2021/09/06 05:33:46;;;;;;;;;;;20.50;70.90;;;;;;5079188;28;1898;-71
2021/09/06 05:36:15;;;;;;;;;;;20.50;70.90;;;;;;5071427;28;1293;-72
2021/09/06 05:38:41;;;;;;;;;;;20.50;70.90;;;;;;5084002;28;1304;-73
2021/09/06 05:41:06;;;;;;;;;;;20.50;70.90;;;;;;5088788;28;1292;-73
2021/09/06 05:43:32;;;;;;;;;;;20.50;71.00;;;;;;5072460;28;1362;-71
2021/09/06 05:45:58;;;;;;;;;;;20.50;71.00;;;;;;5072641;28;1344;-73
2021/09/06 05:48:23;;;;;;;;;;;20.50;71.00;;;;;;5083956;28;788;-74
2021/09/06 05:50:48;;;;;;;;;;;20.50;71.00;;;;;;5093804;28;887;-73
2021/09/06 05:53:15;;;;;;;;;;;20.50;71.00;;;;;;5082108;28;1366;-73
2021/09/06 05:55:41;;;;;;;;;;;20.50;71.00;;;;;;5071163;28;1957;-72
2021/09/06 05:58:06;;;;;;;;;;;20.50;71.00;;;;;;5072586;28;1212;-72
2021/09/06 06:00:32;;;;;;;;;;;20.50;69.70;;;;;;5072317;28;1390;-72
2021/09/06 06:02:57;;;;;;;;;;;20.50;67.80;;;;;;5071114;28;1337;-72
2021/09/06 06:05:23;;;;;;;;;;;20.50;67.40;;;;;;5070889;28;1384;-73
2021/09/06 06:07:48;;;;;;;;;;;20.50;66.80;;;;;;5072437;28;1155;-74
2021/09/06 06:10:14;;;;;;;;;;;20.40;66.20;;;;;;5070945;28;1439;-73
2021/09/06 06:12:39;;;;;;;;;;;20.40;65.90;;;;;;5072483;28;1070;-71
2021/09/06 06:15:05;;;;;;;;;;;20.40;65.40;;;;;;5070088;28;1959;-72
2021/09/06 06:17:30;;;;;;;;;;;20.40;65.60;;;;;;5072443;28;1070;-73
2021/09/06 06:19:55;;;;;;;;;;;20.40;65.60;;;;;;5086266;28;1066;-74
2021/09/06 06:22:21;;;;;;;;;;;20.40;65.20;;;;;;5073274;28;1541;-73
2021/09/06 06:24:46;;;;;;;;;;;20.40;65.40;;;;;;5077471;28;1775;-73
2021/09/06 06:27:12;;;;;;;;;;;20.40;65.20;;;;;;5071870;28;1271;-73
2021/09/06 06:29:37;;;;;;;;;;;20.40;65.50;;;;;;5072913;28;1325;-73
2021/09/06 06:32:03;;;;;;;;;;;20.40;64.90;;;;;;5072777;28;1082;-72
2021/09/06 06:34:28;;;;;;;;;;;20.40;64.30;;;;;;5089042;28;1906;-73
2021/09/06 06:36:54;;;;;;;;;;;20.40;64.40;;;;;;5082261;28;1192;-72
2021/09/06 06:39:19;;;;;;;;;;;20.40;64.70;;;;;;5072796;28;1134;-72
2021/09/06 06:41:49;;;;;;;;;;;20.40;63.90;;;;;;5071334;28;1335;-73
2021/09/06 06:44:14;;;;;;;;;;;20.40;63.70;;;;;;5075776;28;1275;-73
2021/09/06 06:46:40;;;;;;;;;;;20.40;63.50;;;;;;5093056;28;1245;-72
2021/09/06 06:49:05;;;;;;;;;;;20.40;63.60;;;;;;5086909;28;1309;-72
2021/09/06 06:51:31;;;;;;;;;;;20.40;64.10;;;;;;5062438;28;1310;-72
2021/09/06 06:53:56;;;;;;;;;;;20.30;63.50;;;;;;5072259;28;1961;-73
2021/09/06 06:56:22;;;;;;;;;;;20.40;64.50;;;;;;5072665;28;1157;-72
2021/09/06 06:58:47;;;;;;;;;;;20.30;64.30;;;;;;5087737;28;1169;-72
2021/09/06 07:01:12;;;;;;;;;;;20.40;64.30;;;;;;5092849;28;1350;-72
2021/09/06 07:03:38;;;;;;;;;;;20.40;64.20;;;;;;5089894;28;1354;-72
2021/09/06 07:06:03;;;;;;;;;;;20.30;64.30;;;;;;5072753;28;1153;-72
2021/09/06 07:08:29;;;;;;;;;;;20.40;64.20;;;;;;5088439;28;1266;-72
2021/09/06 07:10:54;;;;;;;;;;;20.30;63.70;;;;;;5092941;28;1339;-71
2021/09/06 07:13:20;;;;;;;;;;;20.30;63.70;;;;;;5089794;28;1291;-72
2021/09/06 07:15:45;;;;;;;;;;;20.30;63.40;;;;;;5072305;28;1902;-72
2021/09/06 07:18:10;;;;;;;;;;;20.30;63.60;;;;;;5075223;28;1187;-73
2021/09/06 07:20:36;;;;;;;;;;;20.30;63.50;;;;;;5074751;28;1636;-74
2021/09/06 07:23:01;;;;;;;;;;;20.30;63.80;;;;;;5071858;28;1695;-74
2021/09/06 07:25:27;;;;;;;;;;;20.30;63.80;;;;;;5071385;28;1114;-71
2021/09/06 07:27:52;;;;;;;;;;;20.30;63.80;;;;;;5088917;28;1395;-72
2021/09/06 07:30:18;;;;;;;;;;;20.30;63.70;;;;;;5092394;28;1236;-72
2021/09/06 07:32:44;;;;;;;;;;;20.30;63.70;;;;;;5075644;28;1110;-72
2021/09/06 07:35:10;;;;;;;;;;;20.30;63.80;;;;;;5080699;28;1982;-72
2021/09/06 07:37:35;;;;;;;;;;;20.30;63.80;;;;;;5076852;28;1077;-72
2021/09/06 07:40:01;;;;;;;;;;;20.30;63.70;;;;;;5072367;28;1106;-72
2021/09/06 07:42:26;;;;;;;;;;;20.30;64.10;;;;;;5071032;28;1247;-73
2021/09/06 07:44:52;;;;;;;;;;;20.30;63.70;;;;;;5071771;28;1286;-73
2021/09/06 07:47:17;;;;;;;;;;;20.30;64.00;;;;;;5072156;28;1306;-72
2021/09/06 07:49:45;;;;;;;;;;;20.30;64.20;;;;;;5070938;28;1317;-73
2021/09/06 07:52:10;;;;;;;;;;;20.30;64.00;;;;;;5071178;28;1420;-73
2021/09/06 07:54:36;;;;;;;;;;;20.30;64.40;;;;;;5074218;28;1906;-72
2021/09/06 07:57:01;;;;;;;;;;;20.30;64.00;;;;;;5077165;28;1125;-74
2021/09/06 07:59:26;;;;;;;;;;;20.30;64.40;;;;;;5095772;28;1505;-74
2021/09/06 08:01:52;;;;;;;;;;;20.30;64.10;;;;;;5080844;28;1165;-74
2021/09/06 08:04:17;;;;;;;;;;;20.30;64.20;;;;;;5075169;28;1274;-74
2021/09/06 08:06:44;;;;;;;;;;;20.30;63.90;;;;;;5074356;28;1317;-74
2021/09/06 08:09:10;;;;;;;;;;;20.30;64.00;;;;;;5074320;28;1154;-74
2021/09/06 08:11:35;;;;;;;;;;;20.40;64.20;;;;;;5075595;28;1110;-74
2021/09/06 08:14:01;;;;;;;;;;;20.30;64.20;;;;;;5074742;28;1965;-74
2021/09/06 08:16:26;;;;;;;;;;;20.40;64.80;;;;;;5075978;28;1181;-74
2021/09/06 08:18:51;;;;;;;;;;;20.30;64.10;;;;;;5094476;28;1374;-75
2021/09/06 08:21:17;;;;;;;;;;;20.30;64.30;;;;;;5079051;28;1294;-75
2021/09/06 08:23:42;;;;;;;;;;;20.30;64.20;;;;;;5075154;28;1357;-78
2021/09/06 08:26:08;;;;;;;;;;;20.40;64.90;;;;;;5075037;28;1074;-76
2021/09/06 08:28:33;;;;;;;;;;;20.40;64.70;;;;;;5074967;28;1091;-76
2021/09/06 08:30:59;;;;;;;;;;;20.40;64.90;;;;;;5073807;28;1182;-77
2021/09/06 08:33:25;;;;;;;;;;;20.40;65.10;;;;;;5080997;28;1237;-76
2021/09/06 08:35:50;;;;;;;;;;;20.40;65.30;;;;;;5060451;28;1967;-76
2021/09/06 08:38:18;;;;;;;;;;;20.40;65.30;;;;;;5075389;28;1150;-75
2021/09/06 08:40:43;;;;;;;;;;;20.40;65.00;;;;;;5073773;28;1274;-75
2021/09/06 08:43:08;;;;;;;;;;;20.40;65.30;;;;;;5073597;28;1861;-74
2021/09/06 08:45:34;;;;;;;;;;;20.40;65.30;;;;;;5071386;28;1897;-73
2021/09/06 08:47:59;;;;;;;;;;;20.40;65.30;;;;;;5074794;28;1125;-73
2021/09/06 08:50:25;;;;;;;;;;;20.40;65.10;;;;;;5073645;28;1461;-74
2021/09/06 08:52:50;;;;;;;;;;;20.40;65.30;;;;;;5074563;28;1254;-73
2021/09/06 08:55:16;;;;;;;;;;;20.40;65.10;;;;;;5071663;28;2196;-74
2021/09/06 08:57:41;;;;;;;;;;;20.40;64.90;;;;;;5074965;28;1022;-73
2021/09/06 09:00:07;;;;;;;;;;;20.40;65.40;;;;;;5071744;28;1927;-73
2021/09/06 09:02:33;;;;;;;;;;;20.40;65.10;;;;;;5065025;28;1889;-74
2021/09/06 09:04:59;;;;;;;;;;;20.40;65.40;;;;;;5067077;28;1192;-73
2021/09/06 09:07:25;;;;;;;;;;;20.40;65.10;;;;;;5072912;28;1828;-74
2021/09/06 09:09:51;;;;;;;;;;;20.40;65.20;;;;;;5073473;28;1509;-74
2021/09/06 09:12:16;;;;;;;;;;;20.40;65.30;;;;;;5088392;28;1349;-73
2021/09/06 09:14:45;;;;;;;;;;;20.40;65.60;;;;;;5073926;28;1898;-73
2021/09/06 09:17:10;;;;;;;;;;;20.40;65.30;;;;;;5060037;28;1096;-73
2021/09/06 09:19:39;;;;;;;;;;;20.40;65.40;;;;;;5073009;28;1089;-73
2021/09/06 09:22:05;;;;;;;;;;;20.40;65.40;;;;;;5074238;28;1141;-73
2021/09/06 09:24:31;;;;;;;;;;;20.40;65.30;;;;;;5072456;28;1216;-73
2021/09/06 09:26:59;;;;;;;;;;;20.40;65.60;;;;;;5073900;28;1070;-73
2021/09/06 09:29:25;;;;;;;;;;;20.40;65.30;;;;;;5073280;28;1063;-73
2021/09/06 09:31:51;;;;;;;;;;;20.40;65.60;;;;;;5087088;28;1085;-73
2021/09/06 09:34:16;;;;;;;;;;;20.40;65.50;;;;;;5073857;28;1913;-73
2021/09/06 09:36:42;;;;;;;;;;;20.40;65.60;;;;;;5083684;28;1142;-74
2021/09/06 09:39:07;;;;;;;;;;;20.40;65.40;;;;;;5085870;28;962;-73
2021/09/06 09:41:33;;;;;;;;;;;20.40;65.60;;;;;;5086949;28;1172;-73
2021/09/06 09:44:12;;;;;;;;;;;20.40;65.60;;;;;;5073090;28;1239;-74
2021/09/06 09:46:38;;;;;;;;;;;20.40;65.50;;;;;;5092082;28;1274;-74
2021/09/06 09:49:10;;;;;;;;;;;20.40;65.60;;;;;;5087157;28;1339;-73
2021/09/06 09:51:36;;;;;;;;;;;20.40;65.80;;;;;;5079361;28;1094;-74
2021/09/06 09:54:02;;;;;;;;;;;20.40;65.90;;;;;;5072599;28;1926;-73
2021/09/06 09:56:29;;;;;;;;;;;20.40;65.90;;;;;;5072283;28;1146;-73
2021/09/06 09:58:54;;;;;;;;;;;20.50;66.00;;;;;;5073239;28;1179;-72
2021/09/06 10:01:19;;;;;;;;;;;20.40;65.90;;;;;;5073608;28;1063;-72
2021/09/06 10:03:45;;;;;;;;;;;20.50;65.90;;;;;;5071809;28;1614;-72
2021/09/06 10:06:10;;;;;;;;;;;20.50;66.00;;;;;;5081733;28;1087;-72
2021/09/06 10:08:36;;;;;;;;;;;20.50;65.80;;;;;;5076710;28;1097;-72
2021/09/06 10:11:10;;;;;;;;;;;20.50;66.00;;;;;;5055269;28;1052;-72
2021/09/06 10:13:38;;;;;;;;;;;20.50;65.90;;;;;;5053508;28;1581;-72
2021/09/06 10:16:04;;;;;;;;;;;20.50;65.80;;;;;;5066739;28;1890;-72
2021/09/06 10:18:36;;;;;;;;;;;20.50;65.40;;;;;;5073158;28;1412;-73
2021/09/06 10:21:09;;;;;;;;;;;20.50;65.30;;;;;;5074749;28;1479;-72
2021/09/06 10:23:40;;;;;;;;;;;20.50;65.40;;;;;;5071537;28;1529;-72
2021/09/06 10:26:09;;;;;;;;;;;20.50;65.40;;;;;;5072095;28;1420;-72
2021/09/06 10:28:34;;;;;;;;;;;20.50;65.70;;;;;;5056918;28;1699;-72
2021/09/06 10:31:00;;;;;;;;;;;20.50;65.60;;;;;;5069268;28;1302;-72
2021/09/06 10:33:26;;;;;;;;;;;20.60;65.50;;;;;;5072449;28;1778;-72
2021/09/06 10:36:09;;;;;;;;;;;20.50;65.30;;;;;;5071969;28;1909;-72
2021/09/06 10:38:35;;;;;;;;;;;20.60;65.20;;;;;;5071750;28;1071;-72
2021/09/06 10:41:06;;;;;;;;;;;20.60;65.20;;;;;;5073170;28;1705;-72
2021/09/06 10:43:40;;;;;;;;;;;20.60;65.00;;;;;;5080915;28;1717;-72
2021/09/06 10:46:05;;;;;;;;;;;20.60;65.00;;;;;;5093126;28;1568;-72
2021/09/06 10:48:31;;;;;;;;;;;20.60;64.80;;;;;;5081086;28;882;-72
2021/09/06 10:50:57;;;;;;;;;;;20.60;65.00;;;;;;5071675;28;1642;-73
2021/09/06 10:53:23;;;;;;;;;;;20.60;64.40;;;;;;5051230;28;1532;-72
2021/09/06 10:55:51;;;;;;;;;;;20.60;64.50;;;;;;5078768;28;1910;-72
2021/09/06 10:58:17;;;;;;;;;;;20.60;64.70;;;;;;5072859;28;1662;-72
2021/09/06 11:00:48;;;;;;;;;;;20.60;65.00;;;;;;5091553;28;1458;-72
2021/09/06 11:03:13;;;;;;;;;;;20.60;65.20;;;;;;5080171;28;1279;-72
2021/09/06 11:05:38;;;;;;;;;;;20.60;65.10;;;;;;5072967;28;1878;-72
2021/09/06 11:08:04;;;;;;;;;;;20.70;64.50;;;;;;5072241;28;1344;-72
2021/09/06 11:10:30;;;;;;;;;;;20.60;64.70;;;;;;5072517;28;1412;-72
2021/09/06 11:12:56;;;;;;;;;;;20.70;65.10;;;;;;5066687;28;2128;-72
2021/09/06 11:15:24;;;;;;;;;;;20.70;65.40;;;;;;5063630;28;1985;-74
2021/09/06 11:17:59;;;;;;;;;;;20.70;65.00;;;;;;5054666;28;1629;-73
2021/09/06 11:20:25;;;;;;;;;;;20.70;65.10;;;;;;5059297;28;1381;-74
2021/09/06 11:22:51;;;;;;;;;;;20.70;65.30;;;;;;5072447;28;1196;-73
2021/09/06 11:25:22;;;;;;;;;;;20.70;65.30;;;;;;5072274;28;1494;-74
2021/09/06 11:27:50;;;;;;;;;;;20.60;65.20;;;;;;5072600;28;1233;-73
2021/09/06 11:30:19;;;;;;;;;;;20.70;64.70;;;;;;5076402;28;1378;-74
2021/09/06 11:32:45;;;;;;;;;;;20.70;64.70;;;;;;5089917;28;1375;-74
2021/09/06 11:35:11;;;;;;;;;;;20.70;64.90;;;;;;5096170;28;1910;-74
2021/09/06 11:37:36;;;;;;;;;;;20.70;65.00;;;;;;5096125;28;1302;-75
2021/09/06 11:40:02;;;;;;;;;;;20.70;65.00;;;;;;5096244;28;1140;-74
2021/09/06 11:42:28;;;;;;;;;;;20.70;65.00;;;;;;5096200;28;1461;-74
2021/09/06 11:44:57;;;;;;;;;;;20.70;64.70;;;;;;5094553;28;1371;-73
2021/09/06 11:47:23;;;;;;;;;;;20.70;64.80;;;;;;5079456;28;1417;-73
2021/09/06 11:49:55;;;;;;;;;;;20.70;64.80;;;;;;5065631;28;2289;-73
2021/09/06 11:52:34;;;;;;;;;;;20.70;64.90;;;;;;5084137;28;1404;-73
2021/09/06 11:55:00;;;;;;;;;;;20.70;65.00;;;;;;5074308;28;1902;-74
2021/09/06 11:57:26;;;;;;;;;;;20.70;65.60;;;;;;5074392;28;1322;-75
2021/09/06 11:59:52;;;;;;;;;;;20.70;65.80;;;;;;5073992;28;1130;-74
2021/09/06 12:02:17;;;;;;;;;;;20.70;65.50;;;;;;5092896;28;1392;-74
2021/09/06 12:04:43;;;;;;;;;;;20.70;65.40;;;;;;5083602;28;1174;-74
2021/09/06 12:07:12;;;;;;;;;;;20.70;65.10;;;;;;5080171;28;1027;-75
2021/09/06 12:09:37;;;;;;;;;;;20.70;65.10;;;;;;5087688;28;1073;-75
2021/09/06 12:12:05;;;;;;;;;;;20.80;65.20;;;;;;5057366;28;1178;-74
2021/09/06 12:14:41;;;;;;;;;;;20.80;66.10;;;;;;5073580;28;1897;-74
2021/09/06 12:17:06;;;;;;;;;;;20.80;66.50;;;;;;5061991;28;1094;-75
2021/09/06 12:19:38;;;;;;;;;;;20.80;64.10;;;;;;5075342;28;1110;-76
2021/09/06 12:22:10;;;;;;;;;;;20.80;64.50;;;;;;5062387;28;1110;-74
2021/09/06 12:24:36;;;;;;;;;;;20.80;65.40;;;;;;5071861;28;1361;-74
2021/09/06 12:27:08;;;;;;;;;;;20.80;65.90;;;;;;5075168;28;1226;-74
2021/09/06 12:29:33;;;;;;;;;;;20.80;65.70;;;;;;5075307;28;1261;-75
2021/09/06 12:31:59;;;;;;;;;;;20.80;65.50;;;;;;5076950;28;1214;-74
2021/09/06 12:34:24;;;;;;;;;;;20.80;65.20;;;;;;5072675;28;2377;-75
2021/09/06 12:36:52;;;;;;;;;;;20.80;65.50;;;;;;5074639;28;1250;-75
2021/09/06 12:39:18;;;;;;;;;;;20.80;65.90;;;;;;5071284;28;1167;-75
2021/09/06 12:41:43;;;;;;;;;;;20.80;66.00;;;;;;5074634;28;1387;-73
2021/09/06 12:44:08;;;;;;;;;;;20.80;66.30;;;;;;5074545;28;1651;-75
2021/09/06 12:46:34;;;;;;;;;;;20.80;66.40;;;;;;5073621;28;1103;-75
2021/09/06 12:48:59;;;;;;;;;;;20.80;66.40;;;;;;5072178;28;1071;-75
2021/09/06 12:51:25;;;;;;;;;;;20.70;66.50;;;;;;5063411;28;1057;-75
2021/09/06 12:53:53;;;;;;;;;;;20.80;66.60;;;;;;5072895;28;1357;-76
2021/09/06 12:56:18;;;;;;;;;;;20.80;66.40;;;;;;5073375;28;1894;-74
2021/09/06 12:58:44;;;;;;;;;;;20.80;66.30;;;;;;5074401;28;1165;-76
2021/09/06 13:01:09;;;;;;;;;;;20.80;66.20;;;;;;5073310;28;1075;-74
2021/09/06 13:03:34;;;;;;;;;;;20.80;65.80;;;;;;5073876;28;1242;-75
2021/09/06 13:06:00;;;;;;;;;;;20.80;65.60;;;;;;5073033;28;1071;-75
2021/09/06 13:08:25;;;;;;;;;;;20.80;65.60;;;;;;5089350;28;1310;-72
2021/09/06 13:10:51;;;;;;;;;;;20.80;65.50;;;;;;5094522;28;1389;-74
2021/09/06 13:13:17;;;;;;;;;;;20.80;65.90;;;;;;5094235;28;1239;-74
2021/09/06 13:15:42;;;;;;;;;;;20.80;65.60;;;;;;5094066;28;1898;-73
2021/09/06 13:18:07;;;;;;;;;;;20.80;65.80;;;;;;5094283;28;1250;-74
2021/09/06 13:20:33;;;;;;;;;;;20.80;63.90;;;;;;5094593;28;1275;-74
2021/09/06 13:22:58;;;;;;;;;;;20.90;64.40;;;;;;5093960;28;1239;-73
2021/09/06 13:25:24;;;;;;;;;;;20.90;65.30;;;;;;5076360;28;1195;-74
2021/09/06 13:27:49;;;;;;;;;;;20.90;65.00;;;;;;5072977;28;1391;-74
2021/09/06 13:30:15;;;;;;;;;;;20.80;65.80;;;;;;5073854;28;1094;-74
2021/09/06 13:32:43;;;;;;;;;;;20.90;66.20;;;;;;5073444;28;1271;-73
2021/09/06 13:35:09;;;;;;;;;;;20.90;66.30;;;;;;5072205;28;1974;-73
2021/09/06 13:37:34;;;;;;;;;;;20.90;66.30;;;;;;5073720;28;1336;-73
2021/09/06 13:40:00;;;;;;;;;;;20.90;65.90;;;;;;5072856;28;1703;-75
2021/09/06 13:42:25;;;;;;;;;;;20.90;65.70;;;;;;5072469;28;1307;-74
2021/09/06 13:44:51;;;;;;;;;;;20.90;66.60;;;;;;5072083;28;1361;-75
2021/09/06 13:47:16;;;;;;;;;;;20.90;66.60;;;;;;5073489;28;1277;-75
2021/09/06 13:49:41;;;;;;;;;;;20.90;66.60;;;;;;5072209;28;1067;-74
2021/09/06 13:52:07;;;;;;;;;;;20.90;66.30;;;;;;5071360;28;1262;-75
2021/09/06 13:54:32;;;;;;;;;;;20.90;65.70;;;;;;5073038;28;1951;-76
2021/09/06 13:56:58;;;;;;;;;;;20.90;66.90;;;;;;5052904;28;1255;-76
2021/09/06 13:59:23;;;;;;;;;;;20.90;66.90;;;;;;5073289;28;1343;-76
2021/09/06 14:01:49;;;;;;;;;;;20.90;67.40;;;;;;5073314;28;1115;-76
2021/09/06 14:04:14;;;;;;;;;;;20.90;67.60;;;;;;5071685;28;1297;-76
2021/09/06 14:06:40;;;;;;;;;;;20.90;67.70;;;;;;5071883;28;1439;-75
2021/09/06 14:09:05;;;;;;;;;;;20.90;67.80;;;;;;5072075;28;1267;-74
2021/09/06 14:11:31;;;;;;;;;;;20.90;68.20;;;;;;5071924;28;1322;-74
2021/09/06 14:13:57;;;;;;;;;;;20.90;66.40;;;;;;5072999;28;1288;-73
2021/09/06 14:16:22;;;;;;;;;;;20.90;66.40;;;;;;5073303;28;1975;-74
2021/09/06 14:18:48;;;;;;;;;;;20.90;65.90;;;;;;5072325;28;1130;-73
2021/09/06 14:21:13;;;;;;;;;;;20.90;65.80;;;;;;5073111;28;1392;-73
2021/09/06 14:23:40;;;;;;;;;;;20.90;66.80;;;;;;5072896;28;1415;-73